Wetterdaten: Montag, 09.08.2010
Datum Zeit Temp. A. Feuchte A. Luftdruck Regen Wind Richtung Richtung Sonnenschein UV Solar Windben
09.08.2010 00:00 16,6 C 92 % 1015,6 hPa 0,0 mm 1,3 km/h (1 Bft) W 267 0 min 0 UV-I 0 W/m 6,4 km/h (2 Bft)
09.08.2010 00:10 16,6 C 92 % 1015,7 hPa 0,0 mm 0,9 km/h (0 Bft) W 263 0 min 0 UV-I 0 W/m 6,4 km/h (2 Bft)
09.08.2010 00:20 16,6 C 93 % 1015,7 hPa 0,0 mm 0,6 km/h (0 Bft) W 263 0 min 0 UV-I 0 W/m 4,8 km/h (1 Bft)
09.08.2010 00:30 16,5 C 93 % 1015,8 hPa 0,0 mm 0,8 km/h (0 Bft) W 263 0 min 0 UV-I 0 W/m 8,0 km/h (2 Bft)
09.08.2010 00:40 16,4 C 92 % 1015,8 hPa 0,0 mm 1,2 km/h (1 Bft) W 263 0 min 0 UV-I 0 W/m 6,4 km/h (2 Bft)
09.08.2010 00:50 16,5 C 93 % 1015,9 hPa 0,0 mm 1,1 km/h (1 Bft) W 262 0 min 0 UV-I 0 W/m 8,0 km/h (2 Bft)
09.08.2010 01:00 16,5 C 93 % 1015,8 hPa 0,0 mm 1,6 km/h (1 Bft) W 270 0 min 0 UV-I 0 W/m 8,0 km/h (2 Bft)
09.08.2010 01:10 16,4 C 93 % 1015,8 hPa 0,0 mm 3,2 km/h (1 Bft) W-SW 247 0 min 0 UV-I 0 W/m 14,5 km/h (3 Bft)
09.08.2010 01:20 16,4 C 93 % 1015,8 hPa 0,0 mm 3,2 km/h (1 Bft) W-SW 247 0 min 0 UV-I 0 W/m 11,3 km/h (2 Bft)
09.08.2010 01:30 16,4 C 93 % 1015,7 hPa 0,0 mm 3,2 km/h (1 Bft) W 270 0 min 0 UV-I 0 W/m 9,7 km/h (2 Bft)
09.08.2010 01:40 16,4 C 93 % 1015,8 hPa 0,0 mm 3,2 km/h (1 Bft) W 270 0 min 0 UV-I 0 W/m 11,3 km/h (2 Bft)
09.08.2010 01:50 16,4 C 93 % 1015,8 hPa 0,0 mm 3,2 km/h (1 Bft) W 270 0 min 0 UV-I 0 W/m 16,1 km/h (3 Bft)
09.08.2010 02:00 16,3 C 93 % 1015,9 hPa 0,0 mm 3,2 km/h (1 Bft) W-SW 247 0 min 0 UV-I 0 W/m 9,7 km/h (2 Bft)
09.08.2010 02:10 16,3 C 93 % 1015,8 hPa 0,0 mm 4,8 km/h (1 Bft) W 270 0 min 0 UV-I 0 W/m 11,3 km/h (2 Bft)
09.08.2010 02:20 16,3 C 93 % 1015,8 hPa 0,0 mm 3,2 km/h (1 Bft) W 270 0 min 0 UV-I 0 W/m 9,7 km/h (2 Bft)
09.08.2010 02:30 16,3 C 93 % 1015,9 hPa 0,0 mm 3,2 km/h (1 Bft) W-NW 292 0 min 0 UV-I 0 W/m 9,7 km/h (2 Bft)
09.08.2010 02:40 16,3 C 93 % 1015,8 hPa 0,0 mm 1,6 km/h (1 Bft) W 270 0 min 0 UV-I 0 W/m 14,5 km/h (3 Bft)
09.08.2010 02:50 16,3 C 93 % 1015,8 hPa 0,0 mm 1,6 km/h (1 Bft) W 270 0 min 0 UV-I 0 W/m 6,4 km/h (2 Bft)
09.08.2010 03:00 16,3 C 93 % 1015,8 hPa 0,0 mm 1,6 km/h (1 Bft) W 270 0 min 0 UV-I 0 W/m 8,0 km/h (2 Bft)
09.08.2010 03:10 16,3 C 93 % 1015,7 hPa 0,0 mm 1,6 km/h (1 Bft) W 270 0 min 0 UV-I 0 W/m 9,7 km/h (2 Bft)
09.08.2010 03:20 16,3 C 93 % 1015,9 hPa 0,0 mm 1,6 km/h (1 Bft) W 270 0 min 0 UV-I 0 W/m 9,7 km/h (2 Bft)
09.08.2010 03:30 16,3 C 93 % 1015,9 hPa 0,0 mm 1,6 km/h (1 Bft) W-SW 247 0 min 0 UV-I 0 W/m 12,9 km/h (3 Bft)
09.08.2010 03:40 16,2 C 93 % 1015,9 hPa 0,0 mm 1,6 km/h (1 Bft) W-SW 247 0 min 0 UV-I 0 W/m 8,0 km/h (2 Bft)
09.08.2010 03:50 16,2 C 93 % 1015,9 hPa 0,0 mm 3,2 km/h (1 Bft) SW 225 0 min 0 UV-I 0 W/m 9,7 km/h (2 Bft)
09.08.2010 04:00 16,2 C 93 % 1015,9 hPa 0,0 mm 1,6 km/h (1 Bft) W 270 0 min 0 UV-I 0 W/m 8,0 km/h (2 Bft)
09.08.2010 04:10 16,2 C 93 % 1015,8 hPa 0,0 mm 1,6 km/h (1 Bft) W 270 0 min 0 UV-I 0 W/m 9,7 km/h (2 Bft)
09.08.2010 04:20 16,1 C 93 % 1015,9 hPa 0,0 mm 3,2 km/h (1 Bft) W-SW 247 0 min 0 UV-I 0 W/m 8,0 km/h (2 Bft)
09.08.2010 04:30 16,1 C 93 % 1015,8 hPa 0,0 mm 3,2 km/h (1 Bft) W-SW 247 0 min 0 UV-I 0 W/m 8,0 km/h (2 Bft)
09.08.2010 04:40 16,1 C 93 % 1015,9 hPa 0,0 mm 1,6 km/h (1 Bft) W-SW 247 0 min 0 UV-I 0 W/m 8,0 km/h (2 Bft)
09.08.2010 04:50 16,1 C 93 % 1015,9 hPa 0,0 mm 1,6 km/h (1 Bft) W 270 0 min 0 UV-I 0 W/m 9,7 km/h (2 Bft)
09.08.2010 05:00 16,0 C 93 % 1015,9 hPa 0,0 mm 1,6 km/h (1 Bft) W-SW 247 0 min 0 UV-I 0 W/m 14,5 km/h (3 Bft)
09.08.2010 05:10 15,9 C 93 % 1015,9 hPa 0,0 mm 3,2 km/h (1 Bft) W-SW 247 0 min 0 UV-I 0 W/m 14,5 km/h (3 Bft)
09.08.2010 05:20 15,8 C 93 % 1015,8 hPa 0,0 mm 4,8 km/h (1 Bft) W 270 0 min 0 UV-I 0 W/m 17,7 km/h (3 Bft)
09.08.2010 05:30 15,8 C 92 % 1015,8 hPa 0,0 mm 4,8 km/h (1 Bft) W 270 0 min 0 UV-I 0 W/m 11,3 km/h (2 Bft)
09.08.2010 05:40 15,7 C 92 % 1015,9 hPa 0,0 mm 4,8 km/h (1 Bft) W-SW 247 0 min 0 UV-I 0 W/m 12,9 km/h (3 Bft)
09.08.2010 05:50 15,7 C 92 % 1015,9 hPa 0,0 mm 3,2 km/h (1 Bft) W 270 0 min 0 UV-I 0 W/m 11,3 km/h (2 Bft)
09.08.2010 06:00 15,6 C 92 % 1015,9 hPa 0,0 mm 4,8 km/h (1 Bft) W 270 0 min 0 UV-I 0 W/m 14,5 km/h (3 Bft)
09.08.2010 06:10 15,6 C 92 % 1016,0 hPa 0,0 mm 3,2 km/h (1 Bft) W 270 0 min 0 UV-I 0 W/m 11,3 km/h (2 Bft)
09.08.2010 06:20 15,5 C 92 % 1016,1 hPa 0,0 mm 4,8 km/h (1 Bft) W 270 0 min 0 UV-I 0 W/m 17,7 km/h (3 Bft)
09.08.2010 06:30 15,5 C 92 % 1016,1 hPa 0,0 mm 3,2 km/h (1 Bft) W-SW 247 0 min 0 UV-I 5 W/m 9,7 km/h (2 Bft)
09.08.2010 06:40 15,5 C 92 % 1016,2 hPa 0,0 mm 3,2 km/h (1 Bft) W 270 0 min 0 UV-I 5 W/m 12,9 km/h (3 Bft)
09.08.2010 06:50 15,5 C 92 % 1016,2 hPa 0,0 mm 4,8 km/h (1 Bft) W 270 0 min 0 UV-I 5 W/m 11,3 km/h (2 Bft)
09.08.2010 07:00 15,4 C 92 % 1016,4 hPa 0,0 mm 4,8 km/h (1 Bft) W-SW 247 0 min 0 UV-I 7 W/m 12,9 km/h (3 Bft)
09.08.2010 07:10 15,4 C 92 % 1016,3 hPa 0,0 mm 3,2 km/h (1 Bft) W 270 0 min 0 UV-I 11 W/m 12,9 km/h (3 Bft)
09.08.2010 07:20 15,5 C 92 % 1016,3 hPa 0,0 mm 3,2 km/h (1 Bft) W-SW 247 0 min 0 UV-I 18 W/m 11,3 km/h (2 Bft)
09.08.2010 07:30 15,5 C 92 % 1016,3 hPa 0,0 mm 1,6 km/h (1 Bft) W 270 0 min 0 UV-I 19 W/m 8,0 km/h (2 Bft)
09.08.2010 07:40 15,5 C 92 % 1016,3 hPa 0,0 mm 3,2 km/h (1 Bft) W 270 0 min 0 UV-I 21 W/m 8,0 km/h (2 Bft)
09.08.2010 07:50 15,6 C 92 % 1016,3 hPa 0,0 mm 0,0 km/h (0 Bft) W-SW 247 0 min 0 UV-I 37 W/m 4,8 km/h (1 Bft)
09.08.2010 08:00 15,5 C 92 % 1016,4 hPa 0,0 mm 5,7 km/h (1 Bft) W-SW 250 0 min 0 UV-I 45 W/m 11,3 km/h (2 Bft)
09.08.2010 08:10 15,5 C 92 % 1016,5 hPa 0,0 mm 3,2 km/h (1 Bft) W-SW 247 0 min 0 UV-I 47 W/m 11,3 km/h (2 Bft)
09.08.2010 08:20 15,5 C 91 % 1016,7 hPa 0,0 mm 4,8 km/h (1 Bft) W-SW 247 0 min 1 UV-I 58 W/m 16,1 km/h (3 Bft)
09.08.2010 08:30 15,5 C 91 % 1016,6 hPa 0,0 mm 3,2 km/h (1 Bft) W-SW 247 0 min 1 UV-I 83 W/m 9,7 km/h (2 Bft)
09.08.2010 08:40 15,6 C 91 % 1016,7 hPa 0,0 mm 3,2 km/h (1 Bft) SW 225 0 min 1 UV-I 127 W/m 9,7 km/h (2 Bft)
09.08.2010 08:50 15,8 C 90 % 1016,7 hPa 0,0 mm 3,2 km/h (1 Bft) W-SW 247 0 min 1 UV-I 118 W/m 12,9 km/h (3 Bft)
09.08.2010 09:00 15,9 C 90 % 1016,8 hPa 0,0 mm 4,8 km/h (1 Bft) W 270 0 min 1 UV-I 158 W/m 12,9 km/h (3 Bft)
09.08.2010 09:10 16,1 C 89 % 1016,8 hPa 0,0 mm 3,2 km/h (1 Bft) W-SW 247 0 min 1 UV-I 146 W/m 9,7 km/h (2 Bft)
09.08.2010 09:20 16,3 C 89 % 1016,9 hPa 0,0 mm 3,2 km/h (1 Bft) W-SW 247 0 min 1 UV-I 178 W/m 11,3 km/h (2 Bft)
09.08.2010 09:30 16,4 C 88 % 1017,0 hPa 0,0 mm 6,4 km/h (2 Bft) W-SW 247 0 min 1 UV-I 127 W/m 19,3 km/h (3 Bft)
09.08.2010 09:40 16,4 C 88 % 1017,0 hPa 0,0 mm 3,2 km/h (1 Bft) W 270 0 min 1 UV-I 116 W/m 11,3 km/h (2 Bft)
09.08.2010 09:50 16,4 C 88 % 1017,1 hPa 0,0 mm 3,2 km/h (1 Bft) W 270 0 min 1 UV-I 172 W/m 11,3 km/h (2 Bft)
09.08.2010 10:00 16,5 C 88 % 1017,1 hPa 0,0 mm 3,2 km/h (1 Bft) W 270 0 min 1 UV-I 169 W/m 9,7 km/h (2 Bft)
09.08.2010 10:10 16,6 C 87 % 1017,1 hPa 0,0 mm 3,2 km/h (1 Bft) SW 225 0 min 2 UV-I 272 W/m 11,3 km/h (2 Bft)
09.08.2010 10:20 16,9 C 86 % 1017,1 hPa 0,0 mm 4,8 km/h (1 Bft) W 270 10 min 3 UV-I 403 W/m 14,5 km/h (3 Bft)
09.08.2010 10:30 17,2 C 84 % 1017,1 hPa 0,0 mm 6,4 km/h (2 Bft) W 270 10 min 3 UV-I 436 W/m 16,1 km/h (3 Bft)
09.08.2010 10:40 17,6 C 84 % 1016,9 hPa 0,0 mm 3,2 km/h (1 Bft) W 270 10 min 4 UV-I 603 W/m 8,0 km/h (2 Bft)
09.08.2010 10:50 18,4 C 79 % 1016,9 hPa 0,0 mm 4,8 km/h (1 Bft) W-SW 247 10 min 5 UV-I 877 W/m 16,1 km/h (3 Bft)
09.08.2010 11:00 18,4 C 79 % 1016,9 hPa 0,0 mm 6,4 km/h (2 Bft) W 270 10 min 5 UV-I 687 W/m 16,1 km/h (3 Bft)
09.08.2010 11:10 18,6 C 76 % 1017,0 hPa 0,0 mm 6,4 km/h (2 Bft) W 270 10 min 5 UV-I 729 W/m 17,7 km/h (3 Bft)
09.08.2010 11:20 18,8 C 75 % 1016,9 hPa 0,0 mm 3,2 km/h (1 Bft) W-SW 247 10 min 5 UV-I 770 W/m 11,3 km/h (2 Bft)
09.08.2010 11:30 19,3 C 72 % 1016,9 hPa 0,0 mm 4,8 km/h (1 Bft) W-NW 292 10 min 5 UV-I 752 W/m 16,1 km/h (3 Bft)
09.08.2010 11:40 19,6 C 71 % 1016,9 hPa 0,0 mm 4,8 km/h (1 Bft) W 270 10 min 6 UV-I 807 W/m 11,3 km/h (2 Bft)
09.08.2010 11:50 20,1 C 68 % 1016,8 hPa 0,0 mm 6,4 km/h (2 Bft) W 270 10 min 6 UV-I 986 W/m 20,9 km/h (4 Bft)
09.08.2010 12:00 20,3 C 68 % 1016,8 hPa 0,0 mm 8,0 km/h (2 Bft) W-SW 247 10 min 5 UV-I 689 W/m 20,9 km/h (4 Bft)
09.08.2010 12:10 19,5 C 70 % 1016,9 hPa 0,0 mm 4,8 km/h (1 Bft) W-SW 247 0 min 4 UV-I 332 W/m 14,5 km/h (3 Bft)
09.08.2010 12:20 19,1 C 71 % 1016,8 hPa 0,0 mm 4,8 km/h (1 Bft) W 270 10 min 5 UV-I 490 W/m 14,5 km/h (3 Bft)
09.08.2010 12:30 19,9 C 67 % 1016,6 hPa 0,0 mm 3,2 km/h (1 Bft) W 270 10 min 7 UV-I 844 W/m 14,5 km/h (3 Bft)
09.08.2010 12:40 20,4 C 69 % 1016,6 hPa 0,0 mm 3,2 km/h (1 Bft) SW 225 10 min 7 UV-I 891 W/m 8,0 km/h (2 Bft)
09.08.2010 12:50 20,6 C 67 % 1016,6 hPa 0,0 mm 3,2 km/h (1 Bft) W 270 10 min 7 UV-I 998 W/m 14,5 km/h (3 Bft)
09.08.2010 13:00 20,6 C 66 % 1016,5 hPa 0,0 mm 6,4 km/h (2 Bft) W 270 10 min 7 UV-I 802 W/m 17,7 km/h (3 Bft)
09.08.2010 13:10 20,4 C 69 % 1016,7 hPa 0,0 mm 6,4 km/h (2 Bft) W-SW 247 10 min 7 UV-I 717 W/m 14,5 km/h (3 Bft)
09.08.2010 13:20 20,3 C 70 % 1016,7 hPa 0,0 mm 4,8 km/h (1 Bft) W-SW 247 10 min 5 UV-I 476 W/m 16,1 km/h (3 Bft)
09.08.2010 13:30 20,2 C 69 % 1016,7 hPa 0,0 mm 4,8 km/h (1 Bft) S-SW 202 0 min 4 UV-I 397 W/m 14,5 km/h (3 Bft)
09.08.2010 13:40 20,1 C 69 % 1016,7 hPa 0,0 mm 4,8 km/h (1 Bft) W-SW 247 0 min 4 UV-I 390 W/m 16,1 km/h (3 Bft)
09.08.2010 13:50 19,9 C 69 % 1016,7 hPa 0,0 mm 4,8 km/h (1 Bft) W-SW 247 0 min 4 UV-I 397 W/m 19,3 km/h (3 Bft)
09.08.2010 14:00 19,9 C 68 % 1016,6 hPa 0,0 mm 3,2 km/h (1 Bft) W-SW 247 10 min 4 UV-I 457 W/m 11,3 km/h (2 Bft)
09.08.2010 14:10 20,3 C 68 % 1016,4 hPa 0,0 mm 3,2 km/h (1 Bft) S-SW 202 10 min 6 UV-I 659 W/m 11,3 km/h (2 Bft)
09.08.2010 14:20 20,7 C 66 % 1016,5 hPa 0,0 mm 3,2 km/h (1 Bft) SW 225 10 min 5 UV-I 547 W/m 11,3 km/h (2 Bft)
09.08.2010 14:30 20,5 C 67 % 1016,5 hPa 0,0 mm 3,2 km/h (1 Bft) W-SW 247 0 min 4 UV-I 360 W/m 11,3 km/h (2 Bft)
09.08.2010 14:40 20,4 C 66 % 1016,4 hPa 0,0 mm 4,8 km/h (1 Bft) W 270 0 min 4 UV-I 418 W/m 17,7 km/h (3 Bft)
09.08.2010 14:50 20,4 C 65 % 1016,4 hPa 0,0 mm 4,8 km/h (1 Bft) SW 225 10 min 6 UV-I 684 W/m 14,5 km/h (3 Bft)
09.08.2010 15:00 20,7 C 64 % 1016,3 hPa 0,0 mm 4,8 km/h (1 Bft) W 270 10 min 5 UV-I 589 W/m 19,3 km/h (3 Bft)
09.08.2010 15:10 20,6 C 64 % 1016,3 hPa 0,0 mm 3,2 km/h (1 Bft) W 270 0 min 3 UV-I 346 W/m 17,7 km/h (3 Bft)
09.08.2010 15:20 20,3 C 65 % 1016,3 hPa 0,0 mm 4,8 km/h (1 Bft) W 270 0 min 3 UV-I 294 W/m 11,3 km/h (2 Bft)
09.08.2010 15:30 20,3 C 64 % 1016,2 hPa 0,0 mm 3,2 km/h (1 Bft) W 270 0 min 3 UV-I 301 W/m 11,3 km/h (2 Bft)
09.08.2010 15:40 20,2 C 66 % 1016,3 hPa 0,0 mm 3,2 km/h (1 Bft) W 270 10 min 3 UV-I 404 W/m 11,3 km/h (2 Bft)
09.08.2010 15:50 20,5 C 65 % 1016,2 hPa 0,0 mm 3,2 km/h (1 Bft) W 270 10 min 3 UV-I 427 W/m 9,7 km/h (2 Bft)
09.08.2010 16:00 20,8 C 62 % 1016,2 hPa 0,0 mm 3,6 km/h (1 Bft) W 264 0 min 3 UV-I 350 W/m 9,7 km/h (2 Bft)
09.08.2010 16:10 20,6 C 63 % 1016,1 hPa 0,0 mm 1,6 km/h (1 Bft) W 270 10 min 3 UV-I 371 W/m 8,0 km/h (2 Bft)
09.08.2010 16:20 20,6 C 63 % 1016,1 hPa 0,0 mm 1,6 km/h (1 Bft) W 270 10 min 3 UV-I 357 W/m 6,4 km/h (2 Bft)
09.08.2010 16:30 20,8 C 60 % 1015,9 hPa 0,0 mm 3,2 km/h (1 Bft) W-SW 247 10 min 3 UV-I 411 W/m 12,9 km/h (3 Bft)
09.08.2010 16:40 20,9 C 59 % 1015,9 hPa 0,0 mm 3,2 km/h (1 Bft) W 270 10 min 3 UV-I 508 W/m 11,3 km/h (2 Bft)
09.08.2010 16:50 21,3 C 55 % 1015,6 hPa 0,0 mm 3,2 km/h (1 Bft) W-SW 247 10 min 3 UV-I 684 W/m 9,7 km/h (2 Bft)
09.08.2010 17:00 21,8 C 56 % 1015,6 hPa 0,0 mm 3,2 km/h (1 Bft) W 270 10 min 3 UV-I 696 W/m 11,3 km/h (2 Bft)
09.08.2010 17:10 22,2 C 54 % 1015,6 hPa 0,0 mm 3,2 km/h (1 Bft) W 270 10 min 3 UV-I 682 W/m 14,5 km/h (3 Bft)
09.08.2010 17:20 21,6 C 58 % 1015,6 hPa 0,0 mm 3,2 km/h (1 Bft) W-SW 247 0 min 2 UV-I 283 W/m 11,3 km/h (2 Bft)
09.08.2010 17:30 21,2 C 59 % 1015,6 hPa 0,0 mm 3,2 km/h (1 Bft) W-SW 247 0 min 2 UV-I 227 W/m 9,7 km/h (2 Bft)
09.08.2010 17:40 21,1 C 59 % 1015,6 hPa 0,0 mm 3,2 km/h (1 Bft) W 270 0 min 1 UV-I 195 W/m 11,3 km/h (2 Bft)
09.08.2010 17:50 20,9 C 59 % 1015,5 hPa 0,0 mm 3,2 km/h (1 Bft) W 270 0 min 1 UV-I 171 W/m 9,7 km/h (2 Bft)
09.08.2010 18:00 20,8 C 60 % 1015,5 hPa 0,0 mm 1,6 km/h (1 Bft) W 270 0 min 1 UV-I 188 W/m 8,0 km/h (2 Bft)
09.08.2010 18:10 20,8 C 59 % 1015,4 hPa 0,0 mm 1,6 km/h (1 Bft) W 270 10 min 1 UV-I 241 W/m 6,4 km/h (2 Bft)
09.08.2010 18:20 21,0 C 60 % 1015,4 hPa 0,0 mm 1,6 km/h (1 Bft) W 270 0 min 1 UV-I 213 W/m 8,0 km/h (2 Bft)
09.08.2010 18:30 20,9 C 60 % 1015,4 hPa 0,0 mm 1,6 km/h (1 Bft) W-NW 292 10 min 1 UV-I 308 W/m 6,4 km/h (2 Bft)
09.08.2010 18:40 21,2 C 59 % 1015,3 hPa 0,0 mm 0,0 km/h (0 Bft) W-NW 292 10 min 1 UV-I 267 W/m 4,8 km/h (1 Bft)
09.08.2010 18:50 21,2 C 61 % 1015,4 hPa 0,0 mm 0,0 km/h (0 Bft) NW 315 10 min 1 UV-I 199 W/m 4,8 km/h (1 Bft)
09.08.2010 19:00 21,2 C 62 % 1015,3 hPa 0,0 mm 0,0 km/h (0 Bft) NW 315 10 min 1 UV-I 262 W/m 4,8 km/h (1 Bft)
09.08.2010 19:10 21,1 C 60 % 1015,2 hPa 0,0 mm 1,6 km/h (1 Bft) NW 315 10 min 1 UV-I 236 W/m 6,4 km/h (2 Bft)
09.08.2010 19:20 21,2 C 60 % 1015,2 hPa 0,0 mm 0,0 km/h (0 Bft) NW 315 10 min 1 UV-I 253 W/m 6,4 km/h (2 Bft)
09.08.2010 19:30 21,4 C 61 % 1015,2 hPa 0,0 mm 0,0 km/h (0 Bft) NW 315 10 min 1 UV-I 236 W/m 4,8 km/h (1 Bft)
09.08.2010 19:40 21,3 C 60 % 1015,2 hPa 0,0 mm 0,0 km/h (0 Bft) N 0 10 min 1 UV-I 176 W/m 0,0 km/h (0 Bft)
09.08.2010 19:50 21,1 C 60 % 1015,2 hPa 0,0 mm 0,0 km/h (0 Bft) NW 315 10 min 0 UV-I 125 W/m 1,6 km/h (1 Bft)
09.08.2010 20:00 20,8 C 62 % 1015,2 hPa 0,0 mm 0,0 km/h (0 Bft) NW 315 0 min 0 UV-I 60 W/m 3,2 km/h (1 Bft)
09.08.2010 20:10 20,7 C 61 % 1015,1 hPa 0,0 mm 0,0 km/h (0 Bft) NW 315 10 min 0 UV-I 74 W/m 3,2 km/h (1 Bft)
09.08.2010 20:20 20,6 C 63 % 1015,1 hPa 0,0 mm 0,0 km/h (0 Bft) NW 315 10 min 0 UV-I 56 W/m 1,6 km/h (1 Bft)
09.08.2010 20:30 20,4 C 65 % 1015,1 hPa 0,0 mm 0,0 km/h (0 Bft) N 0 10 min 0 UV-I 37 W/m 0,0 km/h (0 Bft)
09.08.2010 20:40 20,1 C 68 % 1015,1 hPa 0,0 mm 0,0 km/h (0 Bft) N 0 10 min 0 UV-I 25 W/m 0,0 km/h (0 Bft)
09.08.2010 20:50 19,7 C 72 % 1015,2 hPa 0,0 mm 0,0 km/h (0 Bft) N 0 0 min 0 UV-I 18 W/m 0,0 km/h (0 Bft)
09.08.2010 21:00 19,2 C 71 % 1015,3 hPa 0,0 mm 0,0 km/h (0 Bft) N 0 0 min 0 UV-I 11 W/m 0,0 km/h (0 Bft)
09.08.2010 21:10 18,8 C 72 % 1015,3 hPa 0,0 mm 0,0 km/h (0 Bft) N 0 0 min 0 UV-I 0 W/m 0,0 km/h (0 Bft)
09.08.2010 21:20 18,4 C 76 % 1015,4 hPa 0,0 mm 0,0 km/h (0 Bft) N 0 0 min 0 UV-I 0 W/m 0,0 km/h (0 Bft)
09.08.2010 21:30 17,9 C 78 % 1015,4 hPa 0,0 mm 0,0 km/h (0 Bft) N 0 0 min 0 UV-I 0 W/m 0,0 km/h (0 Bft)
09.08.2010 21:40 17,5 C 79 % 1015,5 hPa 0,0 mm 0,0 km/h (0 Bft) N 0 0 min 0 UV-I 0 W/m 0,0 km/h (0 Bft)
09.08.2010 21:50 17,0 C 81 % 1015,6 hPa 0,0 mm 0,0 km/h (0 Bft) NW 315 0 min 0 UV-I 0 W/m 1,6 km/h (1 Bft)
09.08.2010 22:00 16,8 C 81 % 1015,4 hPa 0,0 mm 0,0 km/h (0 Bft) NW 315 0 min 0 UV-I 0 W/m 1,6 km/h (1 Bft)
09.08.2010 22:10 16,7 C 81 % 1015,5 hPa 0,0 mm 0,0 km/h (0 Bft) NW 315 0 min 0 UV-I 0 W/m 1,6 km/h (1 Bft)
09.08.2010 22:20 16,7 C 81 % 1015,5 hPa 0,0 mm 0,0 km/h (0 Bft) N 0 0 min 0 UV-I 0 W/m 0,0 km/h (0 Bft)
09.08.2010 22:30 16,6 C 82 % 1015,5 hPa 0,0 mm 0,0 km/h (0 Bft) NW 315 0 min 0 UV-I 0 W/m 1,6 km/h (1 Bft)
09.08.2010 22:40 16,3 C 83 % 1015,5 hPa 0,0 mm 0,0 km/h (0 Bft) N 360 0 min 0 UV-I 0 W/m 4,8 km/h (1 Bft)
09.08.2010 22:50 16,2 C 83 % 1015,5 hPa 0,0 mm 0,0 km/h (0 Bft) N 360 0 min 0 UV-I 0 W/m 1,6 km/h (1 Bft)
09.08.2010 23:00 16,0 C 84 % 1015,5 hPa 0,0 mm 0,0 km/h (0 Bft) N 360 0 min 0 UV-I 0 W/m 3,2 km/h (1 Bft)
09.08.2010 23:10 15,8 C 84 % 1015,6 hPa 0,0 mm 0,0 km/h (0 Bft) N-NO 22 0 min 0 UV-I 0 W/m 1,6 km/h (1 Bft)
09.08.2010 23:20 15,7 C 85 % 1015,6 hPa 0,0 mm 0,0 km/h (0 Bft) N-NO 22 0 min 0 UV-I 0 W/m 1,6 km/h (1 Bft)
09.08.2010 23:30 15,6 C 85 % 1015,6 hPa 0,0 mm 0,0 km/h (0 Bft) N 0 0 min 0 UV-I 0 W/m 0,0 km/h (0 Bft)
09.08.2010 23:40 15,6 C 86 % 1015,6 hPa 0,0 mm 0,0 km/h (0 Bft) N-NO 22 0 min 0 UV-I 0 W/m 3,2 km/h (1 Bft)
09.08.2010 23:50 15,6 C 86 % 1015,6 hPa 0,0 mm 0,0 km/h (0 Bft) N-NO 22 0 min 0 UV-I 0 W/m 3,2 km/h (1 Bft)
_ Min-Zeit 06:50 17:10 20:10 - 07:50 - - - - - 19:40
Minimum _ 15,4 C 54 % 1015,1 hPa - 0,0 km/h (0 Bft) - - - - - 0,0 km/h (0 Bft)
_ Max-Zeit 17:10 00:20 09:50 00:00 12:00 - - 10:20 12:30 12:50 11:50
Maximum _ 22,4 C 93 % 1017,1 hPa 0,0 mm 8,0 km/h
W-SW (2 Bft)
- - 10 min 7 UV-I 998 W/m 20,9 km/h
W-NW (4 Bft)
Durchschnitt _ 18,0 C 79 % 1016,0 hPa #0,0 mm 2,6 km/h (1 Bft) W - #7:40 h 3 UV-I 339 W/m 9,6 km/h (2 Bft)